Time;durP1;ratioP1;P1;durP2;ratioP2;P2;SDS_P1;SDS_P2;PMS_P1;PMS_P2;Temp;Humidity;BMP_temperature;BMP_pressure;BME280_temperature;BME280_humidity;BME280_pressure;Samples;Min_cycle;Max_cycle;Signal;HPM_P1;HPM_P2
2021/08/11 00:02:07;14469.00;0.05;25.69;0.00;0.00;0.62;;;;;21.10;1.00;;;;;;2275089;61;1083;-85
2021/08/11 00:04:34;30248.00;0.10;53.01;0.00;0.00;0.62;;;;;21.30;1.00;;;;;;2270571;61;1391;-85
2021/08/11 00:07:01;3541.00;0.01;6.76;0.00;0.00;0.62;;;;;21.50;1.00;;;;;;2271126;61;1204;-85
2021/08/11 00:09:27;295502.00;0.99;510.19;25454.00;0.08;44.71;;;;;21.50;1.00;;;;;;2270865;61;2012;-85
2021/08/11 00:11:54;0.00;0.00;0.62;0.00;0.00;0.62;;;;;21.50;1.00;;;;;;2271423;61;1178;-86
2021/08/11 00:14:21;12616.00;0.04;22.48;0.00;0.00;0.62;;;;;21.40;1.00;;;;;;2271382;61;1383;-86
2021/08/11 00:16:49;107025.00;0.36;185.70;40419.00;0.13;70.61;;;;;21.20;1.00;;;;;;2271176;61;1087;-86
2021/08/11 00:19:17;11373.00;0.04;20.33;0.00;0.00;0.62;;;;;21.20;1.00;;;;;;2270945;61;1128;-86
2021/08/11 00:21:44;33959.00;0.11;59.44;0.00;0.00;0.62;;;;;21.50;1.00;;;;;;2271706;61;1153;-86
2021/08/11 00:24:11;57049.00;0.19;99.38;0.00;0.00;0.62;;;;;21.50;1.00;;;;;;2276489;61;1260;-85
2021/08/11 00:26:38;32794.00;0.11;57.42;0.00;0.00;0.62;;;;;21.30;1.00;;;;;;2276540;61;1191;-85
2021/08/11 00:29:05;206589.00;0.69;357.26;56511.00;0.19;98.44;;;;;21.40;1.00;;;;;;2273266;61;1161;-86
2021/08/11 00:31:32;42653.00;0.14;74.48;0.00;0.00;0.62;;;;;21.40;1.00;;;;;;2271233;61;2013;-86
2021/08/11 00:34:00;171140.00;0.57;296.23;0.00;0.00;0.62;;;;;21.20;1.00;;;;;;2270996;61;1351;-85
2021/08/11 00:36:27;0.00;0.00;0.62;0.00;0.00;0.62;;;;;21.50;1.00;;;;;;2271038;61;1151;-86
2021/08/11 00:38:54;0.00;0.00;0.62;0.00;0.00;0.62;;;;;21.70;1.00;;;;;;2271062;61;1099;-86
2021/08/11 00:41:21;146219.00;0.49;253.29;0.00;0.00;0.62;;;;;21.90;1.00;;;;;;2270904;61;1204;-86
2021/08/11 00:43:48;32032.00;0.11;56.10;0.00;0.00;0.62;;;;;22.00;1.00;;;;;;2270367;61;1259;-86
2021/08/11 00:46:15;19793.00;0.07;34.91;0.00;0.00;0.62;;;;;22.00;1.00;;;;;;2270812;61;1225;-86
2021/08/11 00:48:42;56754.00;0.19;98.87;0.00;0.00;0.62;;;;;21.80;1.00;;;;;;2270375;61;1150;-86
2021/08/11 00:51:10;0.00;0.00;0.62;0.00;0.00;0.62;;;;;21.10;1.00;;;;;;2270895;61;1935;-86
2021/08/11 00:53:40;82438.00;0.27;143.25;15344.00;0.05;27.21;;;;;20.80;1.00;;;;;;2270849;61;1286;-85
2021/08/11 00:56:08;0.00;0.00;0.62;0.00;0.00;0.62;;;;;20.80;1.00;;;;;;2270900;61;1071;-86
2021/08/11 00:58:38;32393.00;0.11;56.72;0.00;0.00;0.62;;;;;20.80;1.00;;;;;;2270785;61;1194;-85
2021/08/11 01:01:06;33580.00;0.11;58.78;0.00;0.00;0.62;;;;;21.10;1.00;;;;;;2270210;61;1192;-85
2021/08/11 01:03:34;17013.00;0.06;30.10;0.00;0.00;0.62;;;;;21.40;1.00;;;;;;2260194;61;1383;-86
2021/08/11 01:06:05;0.00;0.00;0.62;0.00;0.00;0.62;;;;;21.60;1.00;;;;;;2270809;61;1159;-86
2021/08/11 01:08:35;0.00;0.00;0.62;0.00;0.00;0.62;;;;;21.60;1.00;;;;;;2269847;61;1251;-86
2021/08/11 01:11:03;9970.00;0.03;17.90;0.00;0.00;0.62;;;;;21.50;1.00;;;;;;2270265;61;1993;-86
2021/08/11 01:13:31;0.00;0.00;0.62;0.00;0.00;0.62;;;;;21.60;1.00;;;;;;2270653;61;1292;-86
2021/08/11 01:15:58;0.00;0.00;0.62;0.00;0.00;0.62;;;;;21.80;1.00;;;;;;2270519;61;1150;-86
2021/08/11 01:18:25;0.00;0.00;0.62;0.00;0.00;0.62;;;;;22.00;1.00;;;;;;2270417;61;1176;-85
2021/08/11 01:21:00;134414.00;0.45;232.94;0.00;0.00;0.62;;;;;22.20;1.00;;;;;;2270446;61;1171;-86
2021/08/11 01:23:39;6354.00;0.02;11.63;0.00;0.00;0.62;;;;;22.30;1.00;;;;;;2270823;61;1379;-86
2021/08/11 01:26:15;11103.00;0.04;19.86;0.00;0.00;0.62;;;;;22.40;1.00;;;;;;2270944;61;1128;-86
2021/08/11 01:28:50;0.00;0.00;0.62;0.00;0.00;0.62;;;;;22.00;1.00;;;;;;2271417;61;1128;-85
2021/08/11 01:31:20;26755.00;0.09;46.97;0.00;0.00;0.62;;;;;21.80;1.00;;;;;;2270590;61;2025;-86
2021/08/11 01:33:57;0.00;0.00;0.62;0.00;0.00;0.62;;;;;21.90;1.00;;;;;;2270264;61;1368;-85
2021/08/11 01:36:33;54735.00;0.18;95.37;0.00;0.00;0.62;;;;;21.80;1.00;;;;;;2270294;61;1092;-85
2021/08/11 01:39:04;25204.00;0.08;44.28;0.00;0.00;0.62;;;;;21.60;1.00;;;;;;2270303;61;1122;-86
2021/08/11 01:41:36;59797.00;0.20;104.13;0.00;0.00;0.62;;;;;21.60;1.00;;;;;;2269893;61;1170;-86
2021/08/11 01:44:06;6345.00;0.02;11.62;0.00;0.00;0.62;;;;;21.70;1.00;;;;;;2269817;61;1451;-85
2021/08/11 01:46:39;0.00;0.00;0.62;0.00;0.00;0.62;;;;;21.80;1.00;;;;;;2270120;61;1126;-85
2021/08/11 01:49:10;0.00;0.00;0.62;0.00;0.00;0.62;;;;;21.70;1.00;;;;;;2269830;61;1220;-85
2021/08/11 01:51:40;0.00;0.00;0.62;0.00;0.00;0.62;;;;;21.90;1.00;;;;;;2269685;61;2024;-85
2021/08/11 01:54:09;45720.00;0.15;79.78;0.00;0.00;0.62;;;;;22.10;1.00;;;;;;2265378;61;1330;-85
2021/08/11 01:56:39;82067.00;0.27;142.61;0.00;0.00;0.62;;;;;22.10;1.00;;;;;;2269536;61;1310;-85
2021/08/11 01:59:08;0.00;0.00;0.62;0.00;0.00;0.62;;;;;21.90;1.00;;;;;;2270033;61;1162;-85
2021/08/11 02:01:37;0.00;0.00;0.62;0.00;0.00;0.62;;;;;21.80;1.00;;;;;;2269815;61;1159;-85
2021/08/11 02:04:05;0.00;0.00;0.62;0.00;0.00;0.62;;;;;21.80;1.00;;;;;;2269652;61;1376;-86
2021/08/11 02:06:34;42113.00;0.14;73.54;0.00;0.00;0.62;;;;;22.00;1.00;;;;;;2270170;61;1156;-85
2021/08/11 02:09:02;41902.00;0.14;73.18;0.00;0.00;0.62;;;;;22.10;1.00;;;;;;2262679;61;1160;-86
2021/08/11 02:11:29;56288.00;0.19;98.06;0.00;0.00;0.62;;;;;22.30;1.00;;;;;;2270061;61;1939;-85
2021/08/11 02:13:57;117407168.00;391.36;65556012.00;0.00;0.00;0.62;;;;;22.20;1.00;;;;;;2269761;61;1286;-85
2021/08/11 02:16:24;0.00;0.00;0.62;0.00;0.00;0.62;;;;;21.80;1.00;;;;;;2269920;61;1127;-85
2021/08/11 02:18:51;76488.00;0.25;132.97;0.00;0.00;0.62;;;;;21.70;1.00;;;;;;2269742;61;1126;-85
2021/08/11 02:21:20;13323.00;0.04;23.71;0.00;0.00;0.62;;;;;21.80;1.00;;;;;;2269886;61;1132;-85
2021/08/11 02:23:48;0.00;0.00;0.62;0.00;0.00;0.62;;;;;21.80;1.00;;;;;;2269675;61;1408;-86
2021/08/11 02:26:20;189560.00;0.63;327.95;54670.00;0.18;95.26;;;;;22.00;1.00;;;;;;2269677;61;1145;-85
2021/08/11 02:28:57;0.00;0.00;0.62;0.00;0.00;0.62;;;;;21.70;1.00;;;;;;2270009;61;1100;-85
2021/08/11 02:31:35;17646.00;0.06;31.19;0.00;0.00;0.62;;;;;21.70;1.00;;;;;;2269790;61;2009;-85
2021/08/11 02:34:09;0.00;0.00;0.62;0.00;0.00;0.62;;;;;21.90;1.00;;;;;;2270015;61;1472;-85
2021/08/11 02:36:47;1107.00;0.00;2.54;0.00;0.00;0.62;;;;;22.20;1.00;;;;;;2270405;61;1199;-85
2021/08/11 02:39:26;0.00;0.00;0.62;0.00;0.00;0.62;;;;;22.50;1.00;;;;;;2270225;61;1139;-86
2021/08/11 02:41:58;61418.00;0.20;106.93;0.00;0.00;0.62;;;;;22.30;1.00;;;;;;2271006;61;1116;-85
2021/08/11 02:44:32;73044.00;0.24;127.02;0.00;0.00;0.62;;;;;22.40;1.00;;;;;;2269714;61;1380;-86
2021/08/11 02:47:00;0.00;0.00;0.62;0.00;0.00;0.62;;;;;22.50;1.00;;;;;;2269408;61;1172;-85
2021/08/11 02:49:29;30875.00;0.10;54.10;0.00;0.00;0.62;;;;;22.40;1.00;;;;;;2269972;61;1203;-85
2021/08/11 02:51:58;135123.00;0.45;234.16;34295.00;0.11;60.02;;;;;22.10;1.00;;;;;;2275732;61;2004;-84
2021/08/11 02:54:27;0.00;0.00;0.62;0.00;0.00;0.62;;;;;21.90;1.00;;;;;;2276334;61;1377;-84
2021/08/11 02:56:56;9932.00;0.03;17.83;0.00;0.00;0.62;;;;;22.10;1.00;;;;;;2269994;61;1153;-85
2021/08/11 02:59:24;0.00;0.00;0.62;0.00;0.00;0.62;;;;;22.20;1.00;;;;;;2259001;61;1071;-85
2021/08/11 03:01:52;167280.00;0.56;289.58;52079.00;0.17;90.78;;;;;22.30;1.00;;;;;;2258503;61;1253;-85
2021/08/11 03:04:19;34525.00;0.12;60.41;0.00;0.00;0.62;;;;;22.30;1.00;;;;;;2269936;61;1377;-85
2021/08/11 03:06:46;0.00;0.00;0.62;0.00;0.00;0.62;;;;;21.90;1.00;;;;;;2272560;61;1267;-85
2021/08/11 03:09:13;79171.00;0.26;137.61;13132.00;0.04;23.37;;;;;21.50;1.00;;;;;;2270981;61;1109;-85
2021/08/11 03:11:42;333087.00;1.11;574.79;117344.00;0.39;203.50;;;;;21.10;1.00;;;;;;2268960;61;1924;-85
2021/08/11 03:14:12;177219.00;0.59;306.70;30772.00;0.10;53.92;;;;;21.20;1.00;;;;;;2269064;61;1384;-85
2021/08/11 03:16:39;94049.00;0.31;163.30;0.00;0.00;0.62;;;;;21.00;1.00;;;;;;2269211;61;1163;-85
2021/08/11 03:19:07;99992.00;0.33;173.56;28265.00;0.09;49.58;;;;;21.00;1.00;;;;;;2269180;61;1138;-85
2021/08/11 03:21:34;85412.00;0.28;148.38;19424.00;0.06;34.27;;;;;21.10;1.00;;;;;;2258447;61;1232;-85
2021/08/11 03:24:01;35557.00;0.12;62.20;0.00;0.00;0.62;;;;;21.30;1.00;;;;;;2269476;61;1440;-85
2021/08/11 03:26:28;228909.00;0.76;395.67;0.00;0.00;0.62;;;;;21.50;1.00;;;;;;2268844;61;1092;-85
2021/08/11 03:29:00;0.00;0.00;0.62;0.00;0.00;0.62;;;;;21.00;1.00;;;;;;2268729;61;1136;-85
2021/08/11 03:31:27;17757.00;0.06;31.39;0.00;0.00;0.62;;;;;21.20;1.00;;;;;;2268927;61;2026;-86
2021/08/11 03:33:55;48376.00;0.16;84.38;0.00;0.00;0.62;;;;;21.40;1.00;;;;;;2268751;61;1263;-86
2021/08/11 03:36:22;0.00;0.00;0.62;0.00;0.00;0.62;;;;;20.90;1.00;;;;;;2268484;61;1092;-85
2021/08/11 03:38:49;0.00;0.00;0.62;0.00;0.00;0.62;;;;;20.80;1.00;;;;;;2271231;61;1172;-84
2021/08/11 03:41:16;162124.00;0.54;280.70;24055.00;0.08;42.29;;;;;20.60;1.00;;;;;;2275639;61;1233;-85
2021/08/11 03:43:42;14481.00;0.05;25.71;0.00;0.00;0.62;;;;;20.50;1.00;;;;;;2275490;61;1417;-85
2021/08/11 03:46:11;83921.00;0.28;145.81;16683.00;0.06;29.53;;;;;20.70;1.00;;;;;;2275545;61;1203;-85
2021/08/11 03:48:38;277940.00;0.93;480.00;0.00;0.00;0.62;;;;;20.70;1.00;;;;;;2276075;61;1183;-85
2021/08/11 03:51:05;7824.00;0.03;14.18;0.00;0.00;0.62;;;;;20.80;1.00;;;;;;2275800;61;2006;-85
2021/08/11 03:53:31;54178.00;0.18;94.41;0.00;0.00;0.62;;;;;20.70;1.00;;;;;;2275805;61;1412;-85
2021/08/11 03:55:58;98521.00;0.33;171.02;0.00;0.00;0.62;;;;;20.90;1.00;;;;;;2275881;61;1084;-85
2021/08/11 03:58:25;0.00;0.00;0.62;0.00;0.00;0.62;;;;;21.30;1.00;;;;;;2275714;61;1033;-85
2021/08/11 04:00:52;0.00;0.00;0.62;0.00;0.00;0.62;;;;;21.40;1.00;;;;;;2276001;61;1083;-84
2021/08/11 04:03:20;0.00;0.00;0.62;0.00;0.00;0.62;;;;;21.40;1.00;;;;;;2275825;61;1311;-85
2021/08/11 04:05:47;61633.00;0.21;107.30;0.00;0.00;0.62;;;;;21.20;1.00;;;;;;2275833;61;1210;-85
2021/08/11 04:08:15;161507.00;0.54;279.64;30700.00;0.10;53.79;;;;;20.80;1.00;;;;;;2275021;61;1315;-85
2021/08/11 04:10:45;10113.00;0.03;18.14;0.00;0.00;0.62;;;;;20.60;1.00;;;;;;2275547;61;1996;-85
2021/08/11 04:13:14;64946.00;0.22;113.03;0.00;0.00;0.62;;;;;20.60;1.00;;;;;;2275823;61;1466;-85
2021/08/11 04:15:41;0.00;0.00;0.62;0.00;0.00;0.62;;;;;20.30;1.00;;;;;;2275701;61;1129;-85
2021/08/11 04:18:08;15536.00;0.05;27.54;0.00;0.00;0.62;;;;;20.30;1.00;;;;;;2275694;61;1195;-85
2021/08/11 04:20:37;0.00;0.00;0.62;0.00;0.00;0.62;;;;;20.40;1.00;;;;;;2275313;61;1228;-85
2021/08/11 04:23:04;26327.00;0.09;46.22;0.00;0.00;0.62;;;;;20.40;1.00;;;;;;2275847;61;1405;-85
2021/08/11 04:25:31;197345.00;0.66;341.35;33357.00;0.11;58.39;;;;;20.30;1.00;;;;;;2276335;61;1226;-86
2021/08/11 04:27:58;265502.00;0.89;458.61;98944.00;0.33;171.75;;;;;20.30;1.00;;;;;;2276388;61;1161;-85
2021/08/11 04:30:25;590.00;0.00;1.64;0.00;0.00;0.62;;;;;20.30;1.00;;;;;;2276640;61;1110;-84
2021/08/11 04:32:52;263206.00;0.88;454.66;65183.00;0.22;113.44;;;;;20.50;1.00;;;;;;2276516;61;2038;-84
2021/08/11 04:35:19;37724.00;0.13;65.95;0.00;0.00;0.62;;;;;20.60;1.00;;;;;;2271841;61;1307;-85
2021/08/11 04:37:48;11002.00;0.04;19.69;0.00;0.00;0.62;;;;;20.40;1.00;;;;;;2269400;61;1650;-85
2021/08/11 04:40:15;31636.00;0.11;55.41;0.00;0.00;0.62;;;;;20.30;1.00;;;;;;2269145;61;1155;-85
2021/08/11 04:42:42;32117.00;0.11;56.25;0.00;0.00;0.62;;;;;20.30;1.00;;;;;;2269231;61;1286;-85
2021/08/11 04:45:10;0.00;0.00;0.62;0.00;0.00;0.62;;;;;20.30;1.00;;;;;;2268975;61;1139;-85
2021/08/11 04:47:37;10773.00;0.04;19.29;0.00;0.00;0.62;;;;;20.40;1.00;;;;;;2269137;61;1212;-85
2021/08/11 04:50:05;0.00;0.00;0.62;0.00;0.00;0.62;;;;;20.60;1.00;;;;;;2269079;61;1090;-86
2021/08/11 04:52:32;330728.00;1.10;570.74;114950.00;0.38;199.37;;;;;20.80;1.00;;;;;;2269135;61;2025;-85
2021/08/11 04:55:02;30727.00;0.10;53.84;0.00;0.00;0.62;;;;;21.10;1.00;;;;;;2269244;61;1121;-85
2021/08/11 04:57:29;0.00;0.00;0.62;0.00;0.00;0.62;;;;;21.50;1.00;;;;;;2269478;61;1177;-85
2021/08/11 04:59:56;0.00;0.00;0.62;0.00;0.00;0.62;;;;;21.70;1.00;;;;;;2269397;61;1109;-85
2021/08/11 05:02:23;447.00;0.00;1.39;0.00;0.00;0.62;;;;;22.00;1.00;;;;;;2269200;61;1127;-85
2021/08/11 05:04:49;78553.00;0.26;136.54;0.00;0.00;0.62;;;;;22.20;1.00;;;;;;2269243;61;1150;-85
2021/08/11 05:07:16;0.00;0.00;0.62;0.00;0.00;0.62;;;;;22.40;1.00;;;;;;2268843;61;1222;-85
2021/08/11 05:09:43;161976.00;0.54;280.44;39626.00;0.13;69.24;;;;;22.70;1.00;;;;;;2269348;61;1125;-85
2021/08/11 05:12:12;46945.00;0.16;81.90;0.00;0.00;0.62;;;;;22.50;1.00;;;;;;2269659;61;1921;-85
2021/08/11 05:14:39;7232.00;0.02;13.15;0.00;0.00;0.62;;;;;22.70;1.00;;;;;;2269191;61;1253;-85
2021/08/11 05:17:06;0.00;0.00;0.62;0.00;0.00;0.62;;;;;22.80;1.00;;;;;;2268930;61;1125;-84
2021/08/11 05:19:32;0.00;0.00;0.62;0.00;0.00;0.62;;;;;22.70;1.00;;;;;;2268950;61;1184;-85
2021/08/11 05:22:00;439973.00;1.47;758.54;136296.00;0.45;236.19;;;;;22.80;1.00;;;;;;2269371;61;1149;-85
2021/08/11 05:24:26;194606.00;0.65;336.64;28028.00;0.09;49.17;;;;;22.70;1.00;;;;;;2269441;61;1389;-85
2021/08/11 05:26:53;0.00;0.00;0.62;0.00;0.00;0.62;;;;;22.90;1.00;;;;;;2269324;61;1161;-85
2021/08/11 05:29:23;0.00;0.00;0.62;0.00;0.00;0.62;;;;;22.90;1.00;;;;;;2269444;61;1130;-85
2021/08/11 05:31:50;0.00;0.00;0.62;0.00;0.00;0.62;;;;;22.80;1.00;;;;;;2269666;61;2004;-85
2021/08/11 05:34:17;30851.00;0.10;54.06;0.00;0.00;0.62;;;;;22.90;1.00;;;;;;2269468;61;1366;-84
2021/08/11 05:36:44;0.00;0.00;0.62;0.00;0.00;0.62;;;;;23.00;1.00;;;;;;2269683;61;1156;-84
2021/08/11 05:39:11;342205.00;1.14;590.46;128155.00;0.43;222.15;;;;;22.70;1.00;;;;;;2269421;61;1140;-84
2021/08/11 05:41:37;0.00;0.00;0.62;0.00;0.00;0.62;;;;;23.00;1.00;;;;;;2269431;61;1154;-84
2021/08/11 05:44:05;261962.00;0.87;452.52;0.00;0.00;0.62;;;;;23.90;1.00;;;;;;2272858;61;1356;-83
2021/08/11 05:46:33;0.00;0.00;0.62;0.00;0.00;0.62;;;;;25.10;1.00;;;;;;2276414;61;1070;-83
2021/08/11 05:49:01;302772.00;1.01;522.69;171165.00;0.57;296.27;;;;;26.10;1.00;;;;;;2271719;61;1108;-84
2021/08/11 05:51:28;0.00;0.00;0.62;0.00;0.00;0.62;;;;;27.00;1.00;;;;;;2270661;61;1922;-86
2021/08/11 05:53:56;0.00;0.00;0.62;0.00;0.00;0.62;;;;;27.60;1.00;;;;;;2269259;61;1276;-87
2021/08/11 05:56:24;0.00;0.00;0.62;0.00;0.00;0.62;;;;;28.30;1.00;;;;;;2269865;61;1184;-87
2021/08/11 05:58:51;270014.00;0.90;466.37;29345.00;0.10;51.45;;;;;28.40;1.00;;;;;;2270069;61;1171;-87
2021/08/11 06:01:18;0.00;0.00;0.62;0.00;0.00;0.62;;;;;29.10;1.00;;;;;;2269999;61;1136;-87
2021/08/11 06:04:01;56033.00;0.19;97.62;0.00;0.00;0.62;;;;;29.80;1.00;;;;;;2271192;61;1387;-87
2021/08/11 06:06:29;0.00;0.00;0.62;0.00;0.00;0.62;;;;;30.50;1.00;;;;;;2269601;61;1208;-87
2021/08/11 06:08:56;326639.00;1.09;563.71;184121.00;0.61;318.59;;;;;30.40;1.00;;;;;;2269655;61;1135;-84
2021/08/11 06:11:23;1481.00;0.00;3.19;0.00;0.00;0.62;;;;;30.80;1.00;;;;;;2270367;61;2002;-86
2021/08/11 06:13:50;0.00;0.00;0.62;0.00;0.00;0.62;;;;;31.10;1.00;;;;;;2270098;61;1394;-84
2021/08/11 06:16:17;0.00;0.00;0.62;0.00;0.00;0.62;;;;;31.40;1.00;;;;;;2270896;61;1061;-85
2021/08/11 06:18:44;40335.00;0.13;70.47;0.00;0.00;0.62;;;;;31.60;1.00;;;;;;2269885;61;1241;-85
2021/08/11 06:21:13;0.00;0.00;0.62;0.00;0.00;0.62;;;;;32.10;1.00;;;;;;2271134;61;1240;-85
2021/08/11 06:23:40;187584.00;0.63;324.55;8189.00;0.03;14.81;;;;;32.60;1.00;;;;;;2273200;61;1371;-85
2021/08/11 06:26:08;302026.00;1.01;521.40;106924.00;0.36;185.52;;;;;32.70;1.00;;;;;;2274560;61;1140;-86
2021/08/11 06:28:35;123394.00;0.41;213.94;0.00;0.00;0.62;;;;;32.90;1.00;;;;;;2274403;61;1124;-85
2021/08/11 06:31:02;417113.00;1.39;719.23;66451.00;0.22;115.63;;;;;33.20;1.00;;;;;;2273778;61;1785;-86
2021/08/11 06:33:29;0.00;0.00;0.62;0.00;0.00;0.62;;;;;33.50;1.00;;;;;;2275155;61;2009;-85
2021/08/11 06:35:56;175309.00;0.58;303.41;59327.00;0.20;103.31;;;;;34.00;1.00;;;;;;2275901;61;1096;-86
2021/08/11 06:38:25;222054.00;0.74;383.88;0.00;0.00;0.62;;;;;34.70;1.00;;;;;;2276058;61;1293;-85
2021/08/11 06:40:51;268158.00;0.89;463.18;127058.00;0.42;220.26;;;;;34.30;1.00;;;;;;2276072;61;1116;-85
2021/08/11 06:43:19;118545.00;0.40;205.57;0.00;0.00;0.62;;;;;34.10;1.00;;;;;;2276136;61;1326;-85
2021/08/11 06:45:48;179153.00;0.60;310.03;0.00;0.00;0.62;;;;;33.90;1.00;;;;;;2275867;61;1497;-86
2021/08/11 06:48:15;90175.00;0.30;156.61;0.00;0.00;0.62;;;;;34.50;1.00;;;;;;2276011;61;1609;-85
2021/08/11 06:50:41;0.00;0.00;0.62;0.00;0.00;0.62;;;;;34.10;1.00;;;;;;2276225;61;1124;-85
2021/08/11 06:53:10;0.00;0.00;0.62;0.00;0.00;0.62;;;;;33.90;1.00;;;;;;2276270;61;1996;-85
2021/08/11 06:55:38;10872.00;0.04;19.46;0.00;0.00;0.62;;;;;34.80;1.00;;;;;;2276316;61;1121;-85
2021/08/11 06:58:05;0.00;0.00;0.62;0.00;0.00;0.62;;;;;34.40;1.00;;;;;;2276361;61;1098;-86
2021/08/11 07:00:32;103683.00;0.35;179.93;0.00;0.00;0.62;;;;;34.80;1.00;;;;;;2276278;61;1195;-85
2021/08/11 07:02:59;253818.00;0.85;438.52;124138.00;0.41;215.22;;;;;34.80;1.00;;;;;;2276297;61;1279;-85
2021/08/11 07:05:26;151634.00;0.51;262.62;0.00;0.00;0.62;;;;;34.70;1.00;;;;;;2276098;61;1725;-86
2021/08/11 07:07:53;322265.00;1.07;556.19;45281.00;0.15;79.02;;;;;34.00;1.00;;;;;;2276185;61;987;-86
2021/08/11 07:10:20;123699.00;0.41;214.46;0.00;0.00;0.62;;;;;34.10;1.00;;;;;;2276314;61;1012;-86
2021/08/11 07:12:49;67106.00;0.22;116.76;0.00;0.00;0.62;;;;;34.50;1.00;;;;;;2276258;61;1988;-85
2021/08/11 07:15:16;145621.00;0.49;252.26;56453.00;0.19;98.34;;;;;34.50;1.00;;;;;;2276251;61;1110;-86
2021/08/11 07:17:54;117240024.00;390.80;65276172.00;0.00;0.00;0.62;;;;;34.30;1.00;;;;;;2276090;61;1650;-85
2021/08/11 07:20:21;0.00;0.00;0.62;0.00;0.00;0.62;;;;;34.20;1.00;;;;;;2269026;61;1037;-85
2021/08/11 07:22:48;99444.00;0.33;172.61;0.00;0.00;0.62;;;;;33.90;1.00;;;;;;2276145;61;1494;-85
2021/08/11 07:25:15;382743.00;1.28;660.14;177559.00;0.59;307.29;;;;;34.40;1.00;;;;;;2276207;61;1130;-84
2021/08/11 07:27:42;29231.00;0.10;51.25;0.00;0.00;0.62;;;;;35.70;1.00;;;;;;2275840;61;1025;-86
2021/08/11 07:30:12;86800.00;0.29;150.78;0.00;0.00;0.62;;;;;36.60;1.00;;;;;;2275924;61;1793;-86
2021/08/11 07:32:40;0.00;0.00;0.62;0.00;0.00;0.62;;;;;34.90;1.00;;;;;;2276009;61;1993;-85
2021/08/11 07:35:07;385894.00;1.29;665.56;136986.00;0.46;237.37;;;;;35.70;1.00;;;;;;2276097;61;1037;-85
2021/08/11 07:37:45;0.00;0.00;0.62;0.00;0.00;0.62;;;;;36.00;1.00;;;;;;2263541;61;1000;-87
2021/08/11 07:40:13;78966.00;0.26;137.25;0.00;0.00;0.62;;;;;36.30;1.00;;;;;;2263557;61;1021;-87
2021/08/11 07:42:41;202825.00;0.68;350.79;51381.00;0.17;89.57;;;;;36.00;1.00;;;;;;2262896;61;1305;-86
2021/08/11 07:45:11;196288.00;0.65;339.53;0.00;0.00;0.62;;;;;34.60;1.00;;;;;;2263114;61;1109;-85
2021/08/11 07:47:38;20199.00;0.07;35.61;0.00;0.00;0.62;;;;;33.70;1.00;;;;;;2255505;61;1121;-85
2021/08/11 07:50:07;0.00;0.00;0.62;0.00;0.00;0.62;;;;;33.50;1.00;;;;;;2248620;61;1003;-85
2021/08/11 07:52:35;16716.00;0.06;29.58;0.00;0.00;0.62;;;;;34.40;1.00;;;;;;2251467;61;2005;-84
2021/08/11 07:55:02;287350.00;0.96;496.17;113200.00;0.38;196.35;;;;;34.80;1.00;;;;;;2257055;61;1116;-86
2021/08/11 07:57:28;145213.00;0.48;251.56;0.00;0.00;0.62;;;;;34.80;1.00;;;;;;2267578;61;1741;-91
2021/08/11 07:59:55;53007.00;0.18;92.39;0.00;0.00;0.62;;;;;35.10;1.00;;;;;;2268253;61;1196;-88
2021/08/11 08:02:24;26948.00;0.09;47.30;0.00;0.00;0.62;;;;;36.10;1.00;;;;;;2268264;61;1062;-89
2021/08/11 08:04:51;103707.00;0.35;179.97;0.00;0.00;0.62;;;;;36.40;1.00;;;;;;2269320;61;1092;-88
2021/08/11 08:07:17;170560.00;0.57;295.23;0.00;0.00;0.62;;;;;36.60;1.00;;;;;;2276855;61;1005;-89
2021/08/11 08:09:44;40745.00;0.14;71.18;0.00;0.00;0.62;;;;;36.80;1.00;;;;;;2276896;61;1041;-88
2021/08/11 08:12:11;124193.00;0.41;215.31;0.00;0.00;0.62;;;;;36.30;1.00;;;;;;2276768;61;1919;-87
2021/08/11 08:14:38;128433.00;0.43;222.63;0.00;0.00;0.62;;;;;36.80;1.00;;;;;;2276763;61;1679;-88
2021/08/11 08:17:05;117829.00;0.39;204.34;0.00;0.00;0.62;;;;;36.50;1.00;;;;;;2276825;61;901;-88
2021/08/11 08:19:33;136295.00;0.45;236.18;0.00;0.00;0.62;;;;;37.20;1.00;;;;;;2276787;61;1554;-89
2021/08/11 08:22:00;107794.00;0.36;187.02;0.00;0.00;0.62;;;;;37.40;1.00;;;;;;2276851;61;997;-89
2021/08/11 08:24:31;156871.00;0.52;271.65;0.00;0.00;0.62;;;;;37.30;1.00;;;;;;2276780;61;1290;-88
2021/08/11 08:26:58;95431.00;0.32;165.68;0.00;0.00;0.62;;;;;37.40;1.00;;;;;;2276808;61;996;-88
2021/08/11 08:29:25;187581.00;0.63;324.54;0.00;0.00;0.62;;;;;36.80;1.00;;;;;;2276800;61;1119;-87
2021/08/11 08:31:52;123084.00;0.41;213.40;0.00;0.00;0.62;;;;;36.90;1.00;;;;;;2276772;61;1625;-88
2021/08/11 08:34:19;234393.00;0.78;405.11;0.00;0.00;0.62;;;;;36.80;1.00;;;;;;2276716;61;2009;-88
2021/08/11 08:36:47;288830.00;0.96;498.72;0.00;0.00;0.62;;;;;36.50;1.00;;;;;;2276793;61;965;-88
2021/08/11 08:39:14;112313.00;0.37;194.82;0.00;0.00;0.62;;;;;36.10;1.00;;;;;;2276762;61;1280;-89
2021/08/11 08:41:43;0.00;0.00;0.62;0.00;0.00;0.62;;;;;36.20;1.00;;;;;;2276787;61;998;-88
2021/08/11 08:44:12;141824.00;0.47;245.72;0.00;0.00;0.62;;;;;35.80;1.00;;;;;;2276693;61;1355;-87
2021/08/11 08:46:41;0.00;0.00;0.62;0.00;0.00;0.62;;;;;36.40;1.00;;;;;;2276734;61;1295;-89
2021/08/11 08:49:08;330886.00;1.10;571.01;105342.00;0.35;182.79;;;;;36.30;1.00;;;;;;2276671;61;1455;-88
2021/08/11 08:51:45;30314.00;0.10;53.13;0.00;0.00;0.62;;;;;36.60;1.00;;;;;;2276782;61;988;-87
2021/08/11 08:54:17;97706.00;0.33;169.61;0.00;0.00;0.62;;;;;36.40;1.00;;;;;;2276663;61;1928;-87
2021/08/11 08:56:44;25390.00;0.08;44.60;0.00;0.00;0.62;;;;;36.40;1.00;;;;;;2276719;61;961;-87
2021/08/11 08:59:13;250917.00;0.84;433.53;108810.00;0.36;188.78;;;;;36.10;1.00;;;;;;2276770;61;1009;-87
2021/08/11 09:01:40;85943.00;0.29;149.30;0.00;0.00;0.62;;;;;36.40;1.00;;;;;;2276676;61;1416;-87
2021/08/11 09:04:06;282001.00;0.94;486.98;44321.00;0.15;77.36;;;;;36.30;1.00;;;;;;2276646;61;1292;-88
2021/08/11 09:06:34;115547.00;0.39;200.40;0.00;0.00;0.62;;;;;35.60;1.00;;;;;;2276710;61;981;-88
2021/08/11 09:09:05;201224.00;0.67;348.03;21101.00;0.07;37.18;;;;;35.10;1.00;;;;;;2276466;61;965;-87
2021/08/11 09:11:34;377537.00;1.26;651.19;52018.00;0.17;90.68;;;;;35.40;1.00;;;;;;2276557;61;1692;-88
2021/08/11 09:14:22;0.00;0.00;0.62;0.00;0.00;0.62;;;;;35.00;1.00;;;;;;2276535;61;1917;-88
2021/08/11 09:16:50;0.00;0.00;0.62;0.00;0.00;0.62;;;;;35.30;1.00;;;;;;2266069;61;1025;-88
2021/08/11 09:19:18;0.00;0.00;0.62;0.00;0.00;0.62;;;;;35.10;1.00;;;;;;2276463;61;1025;-87
2021/08/11 09:21:59;11704.00;0.04;20.90;0.00;0.00;0.62;;;;;34.70;1.00;;;;;;2272749;61;962;-86
2021/08/11 09:24:27;80450.00;0.27;139.81;0.00;0.00;0.62;;;;;34.50;1.00;;;;;;2276500;61;1502;-87
2021/08/11 09:26:55;0.00;0.00;0.62;0.00;0.00;0.62;;;;;34.10;1.00;;;;;;2276455;61;1071;-87
2021/08/11 09:29:23;35516.00;0.12;62.13;0.00;0.00;0.62;;;;;33.80;1.00;;;;;;2276454;61;1210;-87
2021/08/11 09:31:50;11439.00;0.04;20.44;0.00;0.00;0.62;;;;;34.00;1.00;;;;;;2276424;61;1114;-87
2021/08/11 09:34:17;20318.00;0.07;35.82;0.00;0.00;0.62;;;;;33.80;1.00;;;;;;2265974;61;2017;-88
2021/08/11 09:36:49;137011.00;0.46;237.42;32541.00;0.11;56.98;;;;;33.60;1.00;;;;;;2276387;61;954;-89
2021/08/11 09:39:18;113486.00;0.38;196.84;0.00;0.00;0.62;;;;;33.00;1.00;;;;;;2276449;61;1254;-87
2021/08/11 09:42:03;90089.00;0.30;156.46;0.00;0.00;0.62;;;;;33.20;1.00;;;;;;2266139;61;1019;-88
2021/08/11 09:44:31;476146.00;1.59;820.77;123449.00;0.41;214.03;;;;;33.30;1.00;;;;;;2276539;61;1469;-88
2021/08/11 09:47:12;0.00;0.00;0.62;0.00;0.00;0.62;;;;;33.00;1.00;;;;;;2276495;61;1826;-88
2021/08/11 09:49:39;188089.00;0.63;325.42;66954.00;0.22;116.50;;;;;33.00;1.00;;;;;;2263935;61;940;-88
2021/08/11 09:52:07;386669.00;1.29;666.89;83718.00;0.28;145.46;;;;;32.90;1.00;;;;;;2263957;61;1107;-89
2021/08/11 09:54:34;88990.00;0.30;154.56;0.00;0.00;0.62;;;;;33.00;1.00;;;;;;2263767;61;2013;-88
2021/08/11 09:57:02;132705.00;0.44;229.99;0.00;0.00;0.62;;;;;32.90;1.00;;;;;;2264006;61;1090;-89
2021/08/11 09:59:30;60848.00;0.20;105.94;0.00;0.00;0.62;;;;;32.70;1.00;;;;;;2263966;61;938;-89
2021/08/11 10:02:15;0.00;0.00;0.62;0.00;0.00;0.62;;;;;32.70;1.00;;;;;;2263887;61;1068;-88
2021/08/11 10:04:42;0.00;0.00;0.62;0.00;0.00;0.62;;;;;32.70;1.00;;;;;;2263945;61;1390;-87
2021/08/11 10:07:10;0.00;0.00;0.62;0.00;0.00;0.62;;;;;32.50;1.00;;;;;;2267142;61;983;-88
2021/08/11 10:09:37;3992.00;0.01;7.54;0.00;0.00;0.62;;;;;32.80;1.00;;;;;;2276457;61;975;-88
2021/08/11 10:12:06;110868.00;0.37;192.33;0.00;0.00;0.62;;;;;32.80;1.00;;;;;;2276421;61;1683;-88
2021/08/11 10:14:37;123274.00;0.41;213.73;0.00;0.00;0.62;;;;;32.80;1.00;;;;;;2276390;61;2038;-88
2021/08/11 10:17:06;13431.00;0.04;23.89;0.00;0.00;0.62;;;;;33.00;1.00;;;;;;2276465;61;1130;-89